Time;durP1;ratioP1;P1;durP2;ratioP2;P2;SDS_P1;SDS_P2;PMS_P1;PMS_P2;Temp;Humidity;BMP_temperature;BMP_pressure;BME280_temperature;BME280_humidity;BME280_pressure;Samples;Min_cycle;Max_cycle;Signal;HPM_P1;HPM_P2
2024/04/04 00:00:09;;;;;;;2.87;2.30;;;11.40;99.90;;;;;;5044038;28;20684;-75
2024/04/04 00:02:40;;;;;;;3.50;2.33;;;11.40;99.90;;;;;;5031326;28;20701;-75
2024/04/04 00:05:06;;;;;;;2.30;2.10;;;11.40;99.90;;;;;;5048819;28;20669;-75
2024/04/04 00:07:33;;;;;;;3.53;2.43;;;11.40;99.90;;;;;;5040413;28;20424;-75
2024/04/04 00:10:00;;;;;;;2.80;2.20;;;11.30;99.90;;;;;;5045958;28;20689;-75
2024/04/04 00:12:28;;;;;;;2.27;2.10;;;11.40;99.90;;;;;;5048712;28;20222;-76
2024/04/04 00:14:53;;;;;;;2.57;2.37;;;11.30;99.90;;;;;;5051273;28;20217;-75
2024/04/04 00:17:22;;;;;;;2.50;2.30;;;11.30;99.90;;;;;;5024150;28;20697;-75
2024/04/04 00:19:47;;;;;;;2.53;2.33;;;11.30;99.90;;;;;;5052149;28;20287;-75
2024/04/04 00:22:14;;;;;;;2.17;1.97;;;11.30;99.90;;;;;;5043512;28;20270;-75
2024/04/04 00:24:40;;;;;;;2.67;2.47;;;11.30;99.90;;;;;;5051522;28;20252;-75
2024/04/04 00:27:07;;;;;;;2.40;2.20;;;11.30;99.90;;;;;;5043091;28;20636;-75
2024/04/04 00:29:33;;;;;;;4.17;2.30;;;11.30;99.90;;;;;;5030306;28;20211;-75
2024/04/04 00:31:59;;;;;;;2.40;2.20;;;11.30;99.90;;;;;;5025201;28;20233;-74
2024/04/04 00:34:27;;;;;;;3.47;2.70;;;11.20;99.90;;;;;;5036476;28;20195;-75
2024/04/04 00:36:53;;;;;;;3.70;2.27;;;11.30;99.90;;;;;;5039646;28;20228;-75
2024/04/04 00:39:19;;;;;;;2.33;2.03;;;11.30;99.90;;;;;;5029120;28;20200;-75
2024/04/04 00:41:46;;;;;;;3.17;2.27;;;11.30;99.90;;;;;;5039917;28;20198;-75
2024/04/04 00:44:12;;;;;;;2.50;2.40;;;11.40;99.90;;;;;;5048669;28;20194;-75
2024/04/04 00:46:39;;;;;;;3.10;2.27;;;11.40;99.90;;;;;;5043932;28;20222;-75
2024/04/04 00:49:05;;;;;;;2.53;2.30;;;11.40;99.90;;;;;;5047154;28;20206;-75
2024/04/04 00:51:33;;;;;;;2.90;2.10;;;11.40;99.90;;;;;;5033253;28;20762;-75
2024/04/04 00:54:01;;;;;;;2.40;2.13;;;11.50;99.90;;;;;;5044147;28;20739;-75
2024/04/04 00:56:28;;;;;;;2.50;2.30;;;11.50;99.90;;;;;;5049433;28;20223;-75
2024/04/04 00:58:55;;;;;;;2.93;2.10;;;11.50;99.90;;;;;;5030004;28;20696;-75
2024/04/04 01:01:21;;;;;;;2.30;2.10;;;11.50;99.90;;;;;;5043429;28;20261;-75
2024/04/04 01:03:47;;;;;;;2.87;2.00;;;11.50;99.90;;;;;;5049848;28;20646;-75
2024/04/04 01:06:26;;;;;;;2.47;2.20;;;11.50;99.90;;;;;;5017845;28;20233;-75
2024/04/04 01:08:54;;;;;;;2.40;2.20;;;11.50;99.90;;;;;;5040875;28;20277;-75
2024/04/04 01:11:20;;;;;;;3.03;2.30;;;11.40;99.90;;;;;;5050944;28;20248;-75
2024/04/04 01:13:47;;;;;;;3.00;2.17;;;11.50;99.90;;;;;;5049956;28;20256;-75
2024/04/04 01:16:13;;;;;;;3.43;2.40;;;11.50;99.90;;;;;;5050049;28;20721;-75
2024/04/04 01:18:39;;;;;;;2.07;1.97;;;11.50;99.90;;;;;;5037461;28;20261;-75
2024/04/04 01:21:06;;;;;;;2.80;2.00;;;11.50;99.90;;;;;;5018613;28;20674;-75
2024/04/04 01:23:33;;;;;;;2.00;1.90;;;11.50;99.90;;;;;;5045206;28;20198;-75
2024/04/04 01:26:00;;;;;;;2.80;2.20;;;11.50;99.90;;;;;;5029128;28;20235;-75
2024/04/04 01:28:26;;;;;;;2.33;2.13;;;11.50;99.90;;;;;;5039169;28;20315;-75
2024/04/04 01:30:52;;;;;;;2.20;2.10;;;11.40;99.90;;;;;;5031388;28;20233;-75
2024/04/04 01:33:19;;;;;;;2.40;2.20;;;11.30;99.90;;;;;;5035972;28;20234;-75
2024/04/04 01:35:45;;;;;;;2.40;2.20;;;11.20;99.90;;;;;;5050410;28;20617;-75
2024/04/04 01:38:12;;;;;;;2.83;2.00;;;11.20;99.90;;;;;;5035954;28;20230;-75
2024/04/04 01:40:37;;;;;;;2.33;2.20;;;11.10;99.90;;;;;;5042289;28;20205;-75
2024/04/04 01:43:06;;;;;;;2.23;2.10;;;11.20;99.90;;;;;;5043012;28;20658;-75
2024/04/04 01:45:31;;;;;;;2.30;2.10;;;11.20;99.90;;;;;;5026590;28;20622;-75
2024/04/04 01:47:58;;;;;;;2.20;2.10;;;11.20;99.90;;;;;;5050593;28;20202;-75
2024/04/04 01:50:24;;;;;;;2.43;2.00;;;11.20;99.90;;;;;;5030924;28;20198;-75
2024/04/04 01:52:51;;;;;;;2.57;2.23;;;11.20;99.90;;;;;;5040758;28;20213;-75
2024/04/04 01:55:16;;;;;;;2.30;2.20;;;11.20;99.90;;;;;;5054002;28;20198;-74
2024/04/04 01:57:43;;;;;;;2.00;1.90;;;11.20;99.90;;;;;;5046259;28;20205;-75
2024/04/04 02:00:11;;;;;;;2.30;2.20;;;11.20;99.90;;;;;;5051822;28;20205;-75
2024/04/04 02:02:39;;;;;;;2.20;2.00;;;11.20;99.90;;;;;;5054542;28;20190;-75
2024/04/04 02:05:05;;;;;;;3.40;2.03;;;11.20;99.90;;;;;;5050676;28;20256;-75
2024/04/04 02:07:32;;;;;;;2.40;2.20;;;11.20;99.90;;;;;;5051017;28;20237;-75
2024/04/04 02:09:58;;;;;;;2.23;2.13;;;11.20;99.90;;;;;;5049858;28;20669;-75
2024/04/04 02:12:25;;;;;;;2.63;2.43;;;11.20;99.90;;;;;;5044160;28;20273;-75
2024/04/04 02:14:51;;;;;;;2.50;2.30;;;11.20;99.90;;;;;;5036327;28;20205;-75
2024/04/04 02:17:19;;;;;;;2.40;2.20;;;11.20;99.90;;;;;;5053869;28;20616;-75
2024/04/04 02:19:45;;;;;;;3.00;2.33;;;11.20;99.90;;;;;;5032717;28;20196;-75
2024/04/04 02:22:11;;;;;;;2.47;2.23;;;11.30;99.90;;;;;;5048899;28;20675;-75
2024/04/04 02:24:37;;;;;;;2.40;2.20;;;11.30;99.90;;;;;;5045524;28;20209;-75
2024/04/04 02:27:04;;;;;;;3.50;2.40;;;11.30;99.90;;;;;;5045370;28;20217;-75
2024/04/04 02:29:30;;;;;;;2.60;2.40;;;11.30;99.90;;;;;;5052671;28;20199;-75
2024/04/04 02:31:57;;;;;;;3.73;2.73;;;11.40;99.90;;;;;;5048131;28;20701;-75
2024/04/04 02:34:24;;;;;;;2.50;2.30;;;11.40;99.90;;;;;;5043102;28;20610;-75
2024/04/04 02:36:51;;;;;;;2.30;2.20;;;11.40;99.90;;;;;;5024130;28;20223;-74
2024/04/04 02:39:17;;;;;;;2.63;2.10;;;11.40;99.90;;;;;;5049369;28;20227;-75
2024/04/04 02:41:44;;;;;;;2.70;2.50;;;11.40;99.90;;;;;;5027859;28;20225;-77
2024/04/04 02:44:10;;;;;;;2.87;2.10;;;11.40;99.90;;;;;;5044837;28;20215;-76
2024/04/04 02:46:37;;;;;;;2.37;2.17;;;11.40;99.90;;;;;;5033168;28;20309;-76
2024/04/04 02:49:03;;;;;;;2.80;2.00;;;11.40;99.90;;;;;;5041923;28;20200;-75
2024/04/04 02:51:32;;;;;;;2.20;2.10;;;11.40;99.90;;;;;;5031908;28;20284;-77
2024/04/04 02:53:58;;;;;;;2.20;2.00;;;11.40;99.90;;;;;;5048285;28;20210;-78
2024/04/04 02:56:25;;;;;;;2.10;2.00;;;11.30;99.90;;;;;;5046646;28;20218;-77
2024/04/04 02:58:51;;;;;;;2.60;2.10;;;11.30;99.90;;;;;;5030355;28;20197;-77
2024/04/04 03:01:18;;;;;;;2.20;2.10;;;11.20;99.90;;;;;;5053692;28;20191;-77
2024/04/04 03:03:44;;;;;;;2.10;2.00;;;11.10;99.90;;;;;;5053097;28;20560;-77
2024/04/04 03:06:10;;;;;;;2.47;2.00;;;11.20;99.90;;;;;;5053079;28;20301;-76
2024/04/04 03:08:38;;;;;;;2.07;1.90;;;11.20;99.90;;;;;;5035169;28;20222;-77
2024/04/04 03:11:05;;;;;;;2.23;2.10;;;11.20;99.90;;;;;;5053080;28;20194;-77
2024/04/04 03:13:31;;;;;;;2.63;2.30;;;11.20;99.90;;;;;;5044669;28;20684;-77
2024/04/04 03:15:58;;;;;;;2.20;2.10;;;11.20;99.90;;;;;;5030738;28;20230;-77
2024/04/04 03:18:24;;;;;;;2.37;2.10;;;11.20;99.90;;;;;;5046618;28;20213;-77
2024/04/04 03:20:51;;;;;;;3.03;2.00;;;11.30;99.90;;;;;;5025700;28;20198;-77
2024/04/04 03:23:17;;;;;;;2.80;2.03;;;11.30;99.90;;;;;;5029496;28;20196;-77
2024/04/04 03:25:45;;;;;;;2.00;1.90;;;11.30;99.90;;;;;;5027558;28;20195;-77
2024/04/04 03:28:11;;;;;;;1.93;1.83;;;11.40;99.90;;;;;;5053035;28;20692;-77
2024/04/04 03:30:39;;;;;;;3.03;2.20;;;11.40;99.90;;;;;;5031926;28;20202;-76
2024/04/04 03:33:04;;;;;;;2.10;1.90;;;11.40;99.90;;;;;;5053077;28;20210;-77
2024/04/04 03:35:31;;;;;;;1.90;1.80;;;11.50;99.90;;;;;;5036300;28;20834;-75
2024/04/04 03:37:57;;;;;;;2.00;1.90;;;11.50;99.90;;;;;;5046610;28;20223;-76
2024/04/04 03:40:24;;;;;;;2.37;2.17;;;11.50;99.90;;;;;;5052995;28;20219;-77
2024/04/04 03:42:52;;;;;;;4.00;2.10;;;11.50;99.90;;;;;;5043860;28;20192;-77
2024/04/04 03:45:20;;;;;;;2.40;2.10;;;11.50;99.90;;;;;;5053446;28;20193;-77
2024/04/04 03:47:46;;;;;;;1.80;1.70;;;11.50;99.90;;;;;;5027955;28;20233;-77
2024/04/04 03:50:12;;;;;;;3.10;2.00;;;11.50;99.90;;;;;;5053479;28;20183;-77
2024/04/04 03:52:38;;;;;;;1.83;1.77;;;11.50;99.90;;;;;;5052502;28;20215;-77
2024/04/04 03:55:06;;;;;;;1.90;1.80;;;11.50;99.90;;;;;;5046986;28;20180;-77
2024/04/04 03:57:33;;;;;;;1.70;1.60;;;11.50;99.90;;;;;;5041361;28;20216;-77
2024/04/04 04:00:03;;;;;;;2.20;1.80;;;11.50;99.90;;;;;;5024024;28;20219;-75
2024/04/04 04:02:28;;;;;;;2.10;1.90;;;11.50;99.90;;;;;;5048629;28;20198;-75
2024/04/04 04:04:56;;;;;;;1.93;1.83;;;11.40;99.90;;;;;;5051895;28;20183;-75
2024/04/04 04:07:22;;;;;;;3.80;2.00;;;11.40;99.90;;;;;;5051079;28;20297;-75
2024/04/04 04:09:48;;;;;;;2.10;2.00;;;11.30;99.90;;;;;;5030469;28;20278;-75
2024/04/04 04:12:14;;;;;;;2.00;1.90;;;11.30;99.90;;;;;;5021868;28;20318;-75
2024/04/04 04:14:41;;;;;;;2.00;1.90;;;11.20;99.90;;;;;;5033104;28;20289;-75
2024/04/04 04:17:08;;;;;;;2.13;2.00;;;11.10;99.90;;;;;;5023626;28;20234;-76
2024/04/04 04:19:35;;;;;;;2.30;2.10;;;11.10;99.90;;;;;;5049264;28;20195;-76
2024/04/04 04:22:01;;;;;;;2.97;2.07;;;11.10;99.90;;;;;;5041189;28;20662;-76
2024/04/04 04:24:27;;;;;;;2.20;2.00;;;11.00;99.90;;;;;;5048190;28;20218;-77
2024/04/04 04:26:54;;;;;;;2.10;2.00;;;11.00;99.90;;;;;;5030142;28;20599;-77
2024/04/04 04:29:20;;;;;;;2.27;2.17;;;11.00;99.90;;;;;;5040147;28;20710;-76
2024/04/04 04:31:46;;;;;;;2.27;2.17;;;11.00;99.90;;;;;;5032309;28;20272;-76
2024/04/04 04:34:14;;;;;;;2.10;1.90;;;11.00;99.90;;;;;;5046739;28;20222;-75
2024/04/04 04:36:54;;;;;;;1.93;1.83;;;11.00;99.90;;;;;;5042723;28;20243;-76
2024/04/04 04:39:20;;;;;;;2.20;2.10;;;11.00;99.90;;;;;;5045699;28;20190;-76
2024/04/04 04:41:47;;;;;;;2.27;2.10;;;11.00;99.90;;;;;;5051419;28;20636;-76
2024/04/04 04:44:13;;;;;;;2.20;2.10;;;10.90;99.90;;;;;;5044657;28;20197;-76
2024/04/04 04:46:40;;;;;;;2.10;2.00;;;10.90;99.90;;;;;;5045881;28;20214;-76
2024/04/04 04:49:06;;;;;;;4.33;2.40;;;10.90;99.90;;;;;;5030094;28;20210;-76
2024/04/04 04:51:34;;;;;;;2.30;2.20;;;10.90;99.90;;;;;;5022757;28;20194;-76
2024/04/04 04:54:00;;;;;;;2.93;2.40;;;10.90;99.90;;;;;;5032942;28;20259;-77
2024/04/04 04:56:26;;;;;;;2.40;2.10;;;10.90;99.90;;;;;;5031387;28;20218;-76
2024/04/04 04:58:52;;;;;;;3.13;2.40;;;10.90;99.90;;;;;;5049674;28;20206;-76
2024/04/04 05:01:19;;;;;;;2.30;2.20;;;10.90;99.90;;;;;;5027168;28;20253;-76
2024/04/04 05:03:45;;;;;;;3.23;2.30;;;10.90;99.90;;;;;;5047296;28;20226;-76
2024/04/04 05:06:12;;;;;;;4.17;2.43;;;10.90;99.90;;;;;;5047355;28;20663;-76
2024/04/04 05:08:39;;;;;;;3.63;2.50;;;11.00;99.90;;;;;;5050744;28;20254;-76
2024/04/04 05:11:06;;;;;;;5.30;3.07;;;11.00;99.90;;;;;;5025172;28;20723;-76
2024/04/04 05:13:31;;;;;;;2.80;2.37;;;11.10;99.90;;;;;;5050981;28;20239;-76
2024/04/04 05:15:58;;;;;;;4.93;2.57;;;11.10;99.90;;;;;;5038996;28;20291;-77
2024/04/04 05:18:25;;;;;;;3.20;2.23;;;11.10;99.90;;;;;;5039301;28;20203;-77
2024/04/04 05:20:58;;;;;;;3.73;2.63;;;11.10;99.90;;;;;;5049648;28;20190;-77
2024/04/04 05:23:24;;;;;;;3.30;2.63;;;11.10;99.90;;;;;;5051101;28;20198;-77
2024/04/04 05:25:53;;;;;;;3.17;2.50;;;11.10;99.90;;;;;;5043929;28;20298;-76
2024/04/04 05:28:21;;;;;;;3.23;2.40;;;11.10;99.90;;;;;;5040521;28;20198;-77
2024/04/04 05:30:48;;;;;;;4.43;2.40;;;11.20;99.90;;;;;;5049035;28;20199;-76
2024/04/04 05:33:14;;;;;;;2.50;2.30;;;11.20;99.90;;;;;;5029970;28;20230;-77
2024/04/04 05:35:40;;;;;;;3.37;2.20;;;11.30;99.90;;;;;;5020462;28;20638;-76
2024/04/04 05:38:06;;;;;;;4.37;2.43;;;11.40;99.90;;;;;;5037711;28;20242;-76
2024/04/04 05:40:35;;;;;;;4.40;2.37;;;11.60;99.90;;;;;;5051033;28;20630;-76
2024/04/04 05:43:03;;;;;;;2.90;2.50;;;11.80;99.90;;;;;;5043841;28;20278;-76
2024/04/04 05:45:30;;;;;;;3.77;2.63;;;12.20;99.90;;;;;;5037561;28;20192;-76
2024/04/04 05:47:56;;;;;;;6.50;2.80;;;12.40;99.90;;;;;;5037569;28;20211;-76
2024/04/04 05:50:24;;;;;;;10.00;9.00;;;12.50;99.90;;;;;;5041037;28;20192;-76
2024/04/04 05:52:50;;;;;;;9.00;8.30;;;12.60;99.90;;;;;;5042369;28;20219;-76
2024/04/04 05:55:17;;;;;;;8.97;8.33;;;12.80;99.90;;;;;;5050348;28;20196;-76
2024/04/04 05:57:44;;;;;;;7.67;6.97;;;13.00;99.90;;;;;;5020113;28;20719;-77
2024/04/04 06:00:13;;;;;;;8.60;7.93;;;13.40;99.90;;;;;;5038971;28;20202;-76
2024/04/04 06:02:39;;;;;;;6.17;5.67;;;13.70;99.90;;;;;;5036506;28;20204;-76
2024/04/04 06:05:06;;;;;;;6.70;6.20;;;13.80;99.90;;;;;;5048600;28;20194;-76
2024/04/04 06:07:33;;;;;;;7.70;7.10;;;14.00;99.90;;;;;;5049937;28;20214;-76
2024/04/04 06:10:00;;;;;;;7.17;6.57;;;14.10;99.90;;;;;;5050580;28;20675;-75
2024/04/04 06:12:25;;;;;;;7.93;7.23;;;14.20;99.90;;;;;;5045480;28;20509;-76
2024/04/04 06:14:52;;;;;;;6.90;6.30;;;14.30;99.90;;;;;;5037769;28;20570;-76
2024/04/04 06:17:19;;;;;;;7.63;6.93;;;14.40;99.90;;;;;;5032435;28;20596;-76
2024/04/04 06:19:46;;;;;;;7.57;7.00;;;14.50;99.90;;;;;;5049493;28;20202;-76
2024/04/04 06:22:12;;;;;;;7.03;6.00;;;14.60;99.90;;;;;;5038814;28;20274;-76
2024/04/04 06:24:39;;;;;;;8.10;7.43;;;14.70;99.90;;;;;;5036179;28;20238;-76
2024/04/04 06:27:05;;;;;;;8.47;7.90;;;14.80;99.90;;;;;;5043869;28;20238;-76
2024/04/04 06:29:32;;;;;;;8.90;8.00;;;14.80;99.90;;;;;;5050502;28;20206;-76
2024/04/04 06:31:59;;;;;;;8.80;8.07;;;14.90;99.90;;;;;;5049101;28;20254;-76
2024/04/04 06:34:27;;;;;;;9.00;8.30;;;15.00;99.90;;;;;;5026470;28;20200;-76
2024/04/04 06:36:53;;;;;;;5.50;4.53;;;15.10;99.90;;;;;;5022657;28;20231;-76
2024/04/04 06:39:20;;;;;;;9.50;8.70;;;15.30;99.90;;;;;;5037103;28;20280;-76
2024/04/04 06:41:46;;;;;;;8.90;8.30;;;15.50;99.90;;;;;;5043289;28;20666;-76
2024/04/04 06:44:12;;;;;;;8.90;8.00;;;15.70;99.90;;;;;;5045811;28;20176;-76
2024/04/04 06:46:38;;;;;;;7.00;5.90;;;15.70;99.90;;;;;;5035309;28;20215;-76
2024/04/04 06:49:05;;;;;;;4.80;3.13;;;15.70;99.90;;;;;;5052427;28;20619;-76
2024/04/04 06:51:32;;;;;;;7.13;3.53;;;15.80;99.90;;;;;;5050497;28;20578;-76
2024/04/04 06:53:59;;;;;;;4.87;2.80;;;15.80;99.90;;;;;;5045632;28;20219;-76
2024/04/04 06:56:25;;;;;;;6.77;6.13;;;15.80;99.90;;;;;;5052160;28;20218;-76
2024/04/04 06:58:52;;;;;;;3.37;2.40;;;15.80;99.90;;;;;;5038861;28;20604;-76
2024/04/04 07:01:18;;;;;;;6.03;4.30;;;15.80;99.90;;;;;;5053519;28;20183;-76
2024/04/04 07:03:44;;;;;;;4.50;2.60;;;15.80;99.90;;;;;;5052979;28;20568;-76
2024/04/04 07:06:10;;;;;;;3.63;2.50;;;15.70;99.90;;;;;;5051560;28;20242;-78
2024/04/04 07:08:40;;;;;;;5.47;2.70;;;15.70;99.90;;;;;;5054309;28;20222;-77
2024/04/04 07:11:06;;;;;;;2.83;2.40;;;15.60;99.90;;;;;;5045984;28;20202;-78
2024/04/04 07:13:35;;;;;;;8.53;7.83;;;15.50;99.90;;;;;;5053112;28;20207;-75
2024/04/04 07:16:02;;;;;;;9.77;8.33;;;15.40;99.90;;;;;;5049185;28;20313;-76
2024/04/04 07:18:30;;;;;;;9.47;8.53;;;15.50;99.90;;;;;;5046539;28;20198;-76
2024/04/04 07:20:56;;;;;;;7.10;2.80;;;15.70;99.90;;;;;;5044116;28;20200;-76
2024/04/04 07:23:23;;;;;;;4.53;2.70;;;15.70;99.90;;;;;;5046246;28;20190;-76
2024/04/04 07:25:52;;;;;;;7.23;6.63;;;16.00;99.90;;;;;;5043835;28;20322;-76
2024/04/04 07:28:19;;;;;;;3.20;2.70;;;16.20;99.90;;;;;;5021124;28;20208;-76
2024/04/04 07:30:45;;;;;;;4.00;2.80;;;16.20;99.90;;;;;;5017790;28;20209;-76
2024/04/04 07:33:11;;;;;;;8.13;7.50;;;16.30;99.90;;;;;;5033921;28;20413;-76
2024/04/04 07:35:38;;;;;;;8.90;8.10;;;16.30;99.90;;;;;;5024743;28;20206;-75
2024/04/04 07:38:05;;;;;;;8.00;7.30;;;16.10;99.90;;;;;;5051573;28;20194;-76
2024/04/04 07:40:33;;;;;;;8.20;7.40;;;16.00;99.90;;;;;;5046707;28;20666;-76
2024/04/04 07:43:01;;;;;;;8.30;7.60;;;15.90;99.90;;;;;;5046082;28;20187;-76
2024/04/04 07:45:27;;;;;;;8.03;7.33;;;15.80;99.90;;;;;;5051928;28;20903;-76
2024/04/04 07:47:54;;;;;;;8.67;7.70;;;15.60;99.90;;;;;;5043042;28;20253;-76
2024/04/04 07:50:20;;;;;;;7.50;6.90;;;15.60;99.90;;;;;;5046196;28;20198;-76
2024/04/04 07:52:48;;;;;;;7.60;6.90;;;15.50;99.90;;;;;;5051220;28;20590;-76
2024/04/04 07:55:15;;;;;;;8.60;7.80;;;15.50;99.90;;;;;;5022454;28;20200;-76
2024/04/04 07:57:42;;;;;;;8.10;7.30;;;15.60;99.90;;;;;;5030554;28;20224;-76
2024/04/04 08:00:13;;;;;;;9.27;8.53;;;15.80;99.90;;;;;;5025943;28;20199;-76
2024/04/04 08:02:40;;;;;;;8.03;7.43;;;16.10;99.90;;;;;;5052340;28;20195;-76
2024/04/04 08:05:06;;;;;;;8.63;7.93;;;16.40;99.90;;;;;;5051882;28;20195;-76
2024/04/04 08:07:36;;;;;;;7.17;4.33;;;16.70;99.90;;;;;;5043611;28;20207;-76
2024/04/04 08:10:05;;;;;;;8.23;7.43;;;17.10;99.90;;;;;;5030847;28;20278;-76
2024/04/04 08:12:33;;;;;;;7.53;6.80;;;17.10;99.90;;;;;;5048076;28;20282;-76
2024/04/04 08:14:59;;;;;;;7.27;6.70;;;17.00;99.90;;;;;;5051429;28;20563;-76
2024/04/04 08:17:27;;;;;;;6.93;4.37;;;16.90;99.90;;;;;;5047568;28;20244;-76
2024/04/04 08:19:54;;;;;;;7.00;6.33;;;16.70;99.90;;;;;;5048642;28;20687;-76
2024/04/04 08:22:22;;;;;;;7.80;7.30;;;16.60;99.90;;;;;;5031750;28;20184;-76
2024/04/04 08:24:48;;;;;;;8.30;7.60;;;16.30;99.90;;;;;;5050531;28;20223;-76
2024/04/04 08:27:14;;;;;;;7.87;7.27;;;16.10;99.90;;;;;;5033393;28;20244;-76
2024/04/04 08:29:40;;;;;;;7.87;7.27;;;15.90;99.90;;;;;;5051687;28;20226;-76
2024/04/04 08:32:08;;;;;;;7.80;7.20;;;15.90;99.90;;;;;;5043403;28;20191;-76
2024/04/04 08:34:35;;;;;;;7.43;6.93;;;15.90;99.90;;;;;;5028893;28;20216;-76
2024/04/04 08:37:02;;;;;;;8.17;7.37;;;16.00;99.90;;;;;;5050740;28;20223;-76
2024/04/04 08:39:28;;;;;;;8.23;7.43;;;16.00;99.90;;;;;;5033946;28;20198;-76
2024/04/04 08:41:55;;;;;;;8.00;7.30;;;16.00;99.90;;;;;;5049633;28;20562;-76
2024/04/04 08:44:21;;;;;;;7.93;7.30;;;16.00;99.90;;;;;;5043058;28;20194;-78
2024/04/04 08:46:49;;;;;;;7.60;7.10;;;15.90;99.90;;;;;;5027033;28;20250;-78
2024/04/04 08:49:18;;;;;;;7.73;7.20;;;15.80;99.90;;;;;;5050092;28;20208;-79
2024/04/04 08:51:47;;;;;;;7.80;7.20;;;16.00;99.90;;;;;;5029879;28;20204;-80
2024/04/04 08:54:13;;;;;;;8.17;7.47;;;16.00;99.90;;;;;;5035395;28;20216;-79
2024/04/04 08:56:41;;;;;;;8.27;7.67;;;16.00;99.90;;;;;;5042901;28;20219;-79
2024/04/04 08:59:06;;;;;;;7.57;7.07;;;16.10;99.90;;;;;;5034761;28;20195;-80
2024/04/04 09:01:33;;;;;;;7.60;7.10;;;16.10;99.90;;;;;;5043602;28;20608;-80
2024/04/04 09:03:59;;;;;;;7.47;6.97;;;16.20;99.90;;;;;;5024314;28;20195;-79
2024/04/04 09:06:27;;;;;;;7.40;6.90;;;16.20;99.90;;;;;;5031556;28;20302;-80
2024/04/04 09:08:58;;;;;;;7.90;7.30;;;16.30;99.90;;;;;;5052185;28;20198;-78
2024/04/04 09:11:25;;;;;;;7.80;7.10;;;16.30;99.90;;;;;;5044633;28;20274;-79
2024/04/04 09:14:02;;;;;;;7.13;6.57;;;16.30;99.90;;;;;;5025273;28;20270;-79
2024/04/04 09:16:28;;;;;;;7.37;6.83;;;16.40;99.90;;;;;;5035098;28;20726;-79
2024/04/04 09:19:06;;;;;;;8.03;7.30;;;16.40;99.90;;;;;;5030817;28;20256;-79
2024/04/04 09:21:33;;;;;;;8.40;7.60;;;16.40;99.90;;;;;;5047691;28;20199;-78
2024/04/04 09:24:03;;;;;;;7.70;7.10;;;16.30;99.90;;;;;;5025495;28;20651;-80
2024/04/04 09:26:30;;;;;;;9.03;8.23;;;16.30;99.90;;;;;;5054581;28;20737;-79
2024/04/04 09:28:57;;;;;;;7.60;7.00;;;16.30;99.90;;;;;;5026744;28;20266;-79
2024/04/04 09:31:28;;;;;;;7.20;6.80;;;16.30;99.90;;;;;;5040758;28;20231;-79
2024/04/04 09:33:56;;;;;;;7.90;7.20;;;16.40;99.90;;;;;;5032644;28;20289;-79
2024/04/04 09:36:25;;;;;;;7.43;6.93;;;16.60;99.90;;;;;;5029493;28;20215;-80
2024/04/04 09:38:52;;;;;;;7.70;7.00;;;16.80;99.90;;;;;;5047113;28;20199;-80
2024/04/04 09:41:21;;;;;;;7.70;7.10;;;17.10;99.90;;;;;;5024486;28;20201;-81
2024/04/04 09:43:48;;;;;;;7.40;6.80;;;17.30;99.90;;;;;;5046806;28;20197;-80
2024/04/04 09:46:17;;;;;;;8.00;7.20;;;17.40;99.90;;;;;;5028780;28;20717;-79
2024/04/04 09:48:45;;;;;;;7.90;7.30;;;17.40;99.90;;;;;;5029470;28;20198;-79
2024/04/04 09:51:12;;;;;;;8.43;7.70;;;17.40;99.90;;;;;;5031438;28;20197;-79
2024/04/04 09:53:39;;;;;;;8.30;7.70;;;17.40;99.90;;;;;;5031725;28;20645;-79
2024/04/04 09:56:07;;;;;;;8.40;7.70;;;17.30;99.90;;;;;;5036907;28;20720;-79
2024/04/04 09:58:34;;;;;;;7.93;7.13;;;17.30;99.90;;;;;;5036439;28;20198;-79
2024/04/04 10:01:10;;;;;;;7.67;7.07;;;17.40;99.90;;;;;;5054631;28;20217;-79
2024/04/04 10:03:36;;;;;;;8.30;7.50;;;17.60;99.90;;;;;;5041654;28;20688;-79
2024/04/04 10:06:04;;;;;;;9.17;7.27;;;17.90;99.90;;;;;;5028912;28;20238;-79
2024/04/04 10:08:30;;;;;;;7.70;7.10;;;18.10;99.90;;;;;;5055013;28;20203;-80
2024/04/04 10:11:05;;;;;;;8.00;7.30;;;18.10;99.90;;;;;;5050401;28;20202;-79
2024/04/04 10:13:31;;;;;;;8.77;7.87;;;18.20;99.90;;;;;;5047526;28;20195;-79
2024/04/04 10:16:01;;;;;;;7.93;7.33;;;18.10;99.90;;;;;;5047811;28;20265;-78
2024/04/04 10:18:27;;;;;;;7.70;7.20;;;18.20;99.90;;;;;;5029361;28;20203;-78
2024/04/04 10:20:54;;;;;;;8.30;7.70;;;18.20;99.90;;;;;;5053468;28;20597;-78
2024/04/04 10:23:24;;;;;;;7.73;7.10;;;18.20;99.90;;;;;;5057782;28;20211;-78
2024/04/04 10:25:51;;;;;;;7.90;7.30;;;18.20;99.90;;;;;;5058190;28;20249;-78
2024/04/04 10:28:18;;;;;;;8.30;7.50;;;18.10;99.90;;;;;;5047568;28;20194;-79
2024/04/04 10:30:47;;;;;;;8.40;7.63;;;17.90;99.90;;;;;;5031401;28;20235;-78
2024/04/04 10:33:15;;;;;;;7.80;7.20;;;17.70;99.90;;;;;;5042643;28;20194;-78
2024/04/04 10:35:42;;;;;;;8.07;7.40;;;17.40;99.90;;;;;;5025963;28;20196;-78
2024/04/04 10:38:08;;;;;;;8.00;7.40;;;17.10;99.90;;;;;;5030300;28;20233;-78
2024/04/04 10:40:35;;;;;;;7.50;6.90;;;17.00;99.90;;;;;;5024542;28;20203;-78
2024/04/04 10:43:03;;;;;;;7.33;6.80;;;16.90;99.90;;;;;;5040210;28;20243;-79
2024/04/04 10:45:30;;;;;;;7.10;6.60;;;16.90;99.90;;;;;;5046056;28;20197;-78
2024/04/04 10:47:56;;;;;;;7.50;6.90;;;16.80;99.90;;;;;;5035752;28;20256;-78
2024/04/04 10:50:26;;;;;;;7.83;6.90;;;16.70;99.90;;;;;;5051042;28;20666;-77
2024/04/04 10:52:52;;;;;;;8.40;6.93;;;16.60;99.90;;;;;;5026183;28;20488;-78
2024/04/04 10:55:20;;;;;;;7.10;6.60;;;16.50;99.90;;;;;;5055678;28;20200;-78
2024/04/04 10:57:51;;;;;;;7.53;6.90;;;16.50;99.90;;;;;;5023396;28;20277;-78
2024/04/04 11:00:19;;;;;;;9.83;9.00;;;16.40;99.90;;;;;;5043451;28;20192;-77
2024/04/04 11:02:46;;;;;;;7.80;7.30;;;16.40;99.90;;;;;;5038132;28;20202;-77
2024/04/04 11:05:13;;;;;;;8.10;7.50;;;16.50;99.90;;;;;;5027366;28;20203;-78
2024/04/04 11:07:42;;;;;;;8.60;7.73;;;16.60;99.90;;;;;;5033973;28;20219;-77
2024/04/04 11:10:10;;;;;;;8.67;8.17;;;16.80;99.90;;;;;;5042608;28;20237;-78
2024/04/04 11:12:37;;;;;;;7.60;7.10;;;17.10;99.90;;;;;;5030229;28;20228;-78
2024/04/04 11:15:05;;;;;;;7.60;7.10;;;17.40;99.90;;;;;;5053216;28;20241;-78
2024/04/04 11:17:32;;;;;;;7.23;6.70;;;17.70;99.90;;;;;;5044714;28;20323;-78
2024/04/04 11:20:06;;;;;;;7.40;6.80;;;17.80;99.90;;;;;;5038559;28;20199;-78
2024/04/04 11:22:32;;;;;;;7.47;6.93;;;18.10;99.90;;;;;;5048170;28;20226;-77
2024/04/04 11:25:00;;;;;;;7.13;6.57;;;18.20;99.90;;;;;;5054435;28;20239;-78
2024/04/04 11:27:26;;;;;;;7.30;6.80;;;18.30;99.90;;;;;;5055232;28;20220;-76
2024/04/04 11:29:53;;;;;;;7.27;6.67;;;18.30;99.90;;;;;;5044969;28;20211;-77
2024/04/04 11:32:19;;;;;;;7.00;6.50;;;18.30;99.90;;;;;;5055406;28;20230;-78
2024/04/04 11:34:46;;;;;;;7.70;6.90;;;18.30;99.90;;;;;;5051031;28;20192;-77
2024/04/04 11:37:12;;;;;;;7.47;6.77;;;18.40;99.90;;;;;;5052665;28;20222;-77
2024/04/04 11:39:39;;;;;;;7.47;6.80;;;18.50;99.90;;;;;;5030103;28;20184;-78
2024/04/04 11:42:06;;;;;;;7.00;6.50;;;18.50;99.90;;;;;;5027771;28;20214;-77
2024/04/04 11:44:33;;;;;;;7.17;6.60;;;18.40;99.90;;;;;;5048018;28;20227;-77
2024/04/04 11:47:00;;;;;;;7.00;6.40;;;18.40;99.90;;;;;;5048962;28;20298;-77
2024/04/04 11:49:27;;;;;;;7.60;6.90;;;18.50;99.90;;;;;;5027054;28;20202;-80
2024/04/04 11:51:53;;;;;;;7.30;6.70;;;18.60;99.90;;;;;;5047778;28;20207;-77
2024/04/04 11:54:20;;;;;;;7.37;6.87;;;18.50;99.90;;;;;;5048557;28;20191;-77
2024/04/04 11:56:47;;;;;;;7.30;6.80;;;18.50;99.90;;;;;;5041010;28;20319;-77
2024/04/04 11:59:15;;;;;;;7.83;7.30;;;18.40;99.90;;;;;;5043433;28;20275;-77
2024/04/04 12:01:41;;;;;;;8.20;7.40;;;18.10;99.90;;;;;;5030702;28;20208;-77
2024/04/04 12:04:09;;;;;;;7.70;6.97;;;17.80;99.90;;;;;;5041408;28;20262;-76
2024/04/04 12:06:35;;;;;;;7.03;6.53;;;17.40;99.90;;;;;;5029703;28;20317;-76
2024/04/04 12:09:05;;;;;;;8.37;7.60;;;17.10;99.90;;;;;;5027409;28;20648;-76
2024/04/04 12:11:32;;;;;;;7.47;6.83;;;16.70;99.90;;;;;;5043292;28;20584;-76
2024/04/04 12:13:59;;;;;;;6.30;5.37;;;16.40;99.90;;;;;;5045789;28;20191;-76
2024/04/04 12:16:27;;;;;;;8.27;7.50;;;16.00;99.90;;;;;;5047710;28;20227;-76
2024/04/04 12:21:38;;;;;;;8.17;7.37;;;15.60;99.90;;;;;;5048495;28;20204;-77
2024/04/04 12:24:05;;;;;;;7.70;7.20;;;15.60;99.90;;;;;;5043740;28;20202;-77
2024/04/04 12:26:33;;;;;;;9.80;9.10;;;15.70;99.90;;;;;;5032751;28;20216;-77
2024/04/04 12:28:59;;;;;;;7.97;7.47;;;15.90;99.90;;;;;;5052203;28;20196;-79
2024/04/04 12:31:28;;;;;;;5.37;4.87;;;16.20;99.90;;;;;;5044748;28;20258;-79
2024/04/04 12:33:54;;;;;;;5.70;3.60;;;16.40;99.90;;;;;;5032481;28;20195;-79
2024/04/04 12:36:21;;;;;;;8.33;7.57;;;16.40;99.90;;;;;;5029623;28;20220;-78
2024/04/04 12:38:47;;;;;;;8.73;7.90;;;16.50;99.90;;;;;;5029780;28;20195;-78
2024/04/04 12:41:14;;;;;;;8.57;7.73;;;16.60;99.90;;;;;;5052436;28;20196;-78
2024/04/04 12:43:39;;;;;;;7.90;7.10;;;16.70;99.90;;;;;;5051527;28;20263;-78
2024/04/04 12:46:06;;;;;;;7.80;7.20;;;16.70;99.90;;;;;;5051623;28;20206;-78
2024/04/04 12:48:34;;;;;;;7.97;7.17;;;16.70;99.90;;;;;;5039300;28;20549;-78